Time,TemperatureF,DewpointF,PressureIn,WindDirection,WindDirectionDegrees,WindSpeedMPH,WindSpeedGustMPH,Humidity,HourlyPrecipIn,Conditions,Clouds,dailyrainin,SoftwareType,DateUTC
2013-02-16 00:02:00,19.2,10.3,29.88,SW,225,0.0,0.0,68,0.00,,,0.00,LWC V2.10 B1813,2013-02-16 07:02:00,
2013-02-16 00:07:00,19.6,10.6,29.87,SW,225,0.0,0.0,68,0.00,,,0.00,LWC V2.10 B1813,2013-02-16 07:07:00,
2013-02-16 00:12:00,19.6,10.6,29.87,SW,225,0.0,0.0,68,0.00,,,0.00,LWC V2.10 B1813,2013-02-16 07:12:00,
2013-02-16 00:17:00,19.6,10.6,29.88,SW,225,0.0,0.0,68,0.00,,,0.00,LWC V2.10 B1813,2013-02-16 07:17:00,
2013-02-16 00:22:00,19.8,10.8,29.88,West,270,0.0,0.0,68,0.00,,,0.00,LWC V2.10 B1813,2013-02-16 07:22:00,
2013-02-16 00:27:00,19.6,10.6,29.87,West,270,0.0,0.0,68,0.00,,,0.00,LWC V2.10 B1813,2013-02-16 07:27:00,
2013-02-16 00:32:00,19.6,10.6,29.87,NW,315,0.0,0.0,68,0.00,,,0.00,LWC V2.10 B1813,2013-02-16 07:32:00,
2013-02-16 00:37:00,19.2,10.3,29.88,WSW,247,0.0,0.0,68,0.00,,,0.00,LWC V2.10 B1813,2013-02-16 07:37:00,
2013-02-16 00:42:00,19.2,10.3,29.87,South,180,0.0,0.0,68,0.00,,,0.00,LWC V2.10 B1813,2013-02-16 07:42:00,
2013-02-16 00:47:00,19.2,10.3,29.87,South,180,0.0,0.0,68,0.00,,,0.00,LWC V2.10 B1813,2013-02-16 07:47:00,
2013-02-16 00:52:00,19.2,10.3,29.86,South,180,0.0,0.0,68,0.00,,,0.00,LWC V2.10 B1813,2013-02-16 07:52:00,
2013-02-16 00:57:00,19.0,10.1,29.86,South,180,0.0,0.0,68,0.00,,,0.00,LWC V2.10 B1813,2013-02-16 07:57:00,
2013-02-16 01:02:00,19.2,10.6,29.86,SSW,202,0.0,0.0,69,0.00,,,0.00,LWC V2.10 B1813,2013-02-16 08:02:00,
2013-02-16 01:07:00,18.9,9.9,29.86,SSW,202,0.0,0.0,68,0.00,,,0.00,LWC V2.10 B1813,2013-02-16 08:07:00,
2013-02-16 01:12:00,18.9,10.3,29.86,NE,45,0.0,0.0,69,0.00,,,0.00,LWC V2.10 B1813,2013-02-16 08:12:00,
2013-02-16 01:17:00,18.9,10.3,29.87,NNW,337,0.0,0.0,69,0.00,,,0.00,LWC V2.10 B1813,2013-02-16 08:17:00,
2013-02-16 01:22:00,18.7,9.8,29.86,NNW,337,0.0,0.0,68,0.00,,,0.00,LWC V2.10 B1813,2013-02-16 08:22:00,
2013-02-16 01:27:00,18.3,9.5,29.86,NNW,337,0.0,0.0,68,0.00,,,0.00,LWC V2.10 B1813,2013-02-16 08:27:00,
2013-02-16 01:32:00,18.1,9.5,29.86,NNW,337,0.0,0.0,68,0.00,,,0.00,LWC V2.10 B1813,2013-02-16 08:32:00,
2013-02-16 01:37:00,18.3,9.8,29.86,NNW,337,0.0,0.0,69,0.00,,,0.00,LWC V2.10 B1813,2013-02-16 08:37:00,
2013-02-16 01:42:00,18.3,9.8,29.86,NNW,337,0.0,0.0,69,0.00,,,0.00,LWC V2.10 B1813,2013-02-16 08:42:00,
2013-02-16 01:47:00,18.1,10.1,29.85,NNE,22,0.0,0.0,70,0.00,,,0.00,LWC V2.10 B1813,2013-02-16 08:47:00,
2013-02-16 01:52:00,18.3,9.8,29.86,West,270,0.0,0.0,69,0.00,,,0.00,LWC V2.10 B1813,2013-02-16 08:52:00,
2013-02-16 01:57:00,18.1,9.6,29.86,West,270,0.0,0.0,69,0.00,,,0.00,LWC V2.10 B1813,2013-02-16 08:57:00,
2013-02-16 02:02:00,17.8,9.7,29.85,West,270,0.0,0.0,70,0.00,,,0.00,LWC V2.10 B1813,2013-02-16 09:02:00,
2013-02-16 02:07:00,18.1,10.0,29.85,West,270,0.0,0.0,70,0.00,,,0.00,LWC V2.10 B1813,2013-02-16 09:07:00,
2013-02-16 02:12:00,18.1,10.0,29.86,West,270,0.0,0.0,70,0.00,,,0.00,LWC V2.10 B1813,2013-02-16 09:12:00,
2013-02-16 02:17:00,18.1,10.1,29.85,West,270,0.0,0.0,70,0.00,,,0.00,LWC V2.10 B1813,2013-02-16 09:17:00,
2013-02-16 02:22:00,18.3,10.1,29.85,WSW,247,0.0,0.0,70,0.00,,,0.00,LWC V2.10 B1813,2013-02-16 09:22:00,
2013-02-16 02:27:00,18.3,10.1,29.85,WSW,247,0.0,0.0,70,0.00,,,0.00,LWC V2.10 B1813,2013-02-16 09:27:00,
2013-02-16 02:32:00,18.3,9.8,29.85,WSW,247,0.0,0.0,69,0.00,,,0.00,LWC V2.10 B1813,2013-02-16 09:32:00,
2013-02-16 02:37:00,18.1,10.0,29.85,WSW,247,0.0,0.0,70,0.00,,,0.00,LWC V2.10 B1813,2013-02-16 09:37:00,
2013-02-16 02:42:00,17.8,9.7,29.85,WSW,247,0.0,0.0,70,0.00,,,0.00,LWC V2.10 B1813,2013-02-16 09:42:00,
2013-02-16 02:47:00,17.4,9.3,29.84,WSW,247,0.0,0.0,70,0.00,,,0.00,LWC V2.10 B1813,2013-02-16 09:47:00,
2013-02-16 02:52:00,17.2,9.1,29.84,WSW,247,0.0,0.0,70,0.00,,,0.00,LWC V2.10 B1813,2013-02-16 09:52:00,
2013-02-16 02:57:00,17.2,9.1,29.84,WSW,247,0.0,0.0,70,0.00,,,0.00,LWC V2.10 B1813,2013-02-16 09:57:00,
2013-02-16 03:02:00,17.2,9.1,29.84,SSW,202,0.0,0.0,70,0.00,,,0.00,LWC V2.10 B1813,2013-02-16 10:02:00,
2013-02-16 03:07:00,17.2,9.1,29.83,SSW,202,0.0,0.0,70,0.00,,,0.00,LWC V2.10 B1813,2013-02-16 10:07:00,
2013-02-16 03:12:00,17.2,9.1,29.83,SSW,202,0.0,0.0,70,0.00,,,0.00,LWC V2.10 B1813,2013-02-16 10:12:00,
2013-02-16 03:17:00,17.2,9.1,29.83,SSW,202,0.0,0.0,70,0.00,,,0.00,LWC V2.10 B1813,2013-02-16 10:17:00,
2013-02-16 03:22:00,17.4,9.6,29.83,NNW,337,0.0,1.6,71,0.00,,,0.00,LWC V2.10 B1813,2013-02-16 10:22:00,
2013-02-16 03:27:00,18.7,10.8,29.82,NE,45,0.0,0.0,71,0.00,,,0.00,LWC V2.10 B1813,2013-02-16 10:27:00,
2013-02-16 03:32:00,20.1,11.8,29.82,West,270,0.0,0.0,70,0.00,,,0.00,LWC V2.10 B1813,2013-02-16 10:32:00,
2013-02-16 03:37:00,21.0,12.1,29.82,NNE,22,0.0,0.0,68,0.00,,,0.00,LWC V2.10 B1813,2013-02-16 10:37:00,
2013-02-16 03:42:00,21.7,12.8,29.83,West,270,2.9,2.9,68,0.00,,,0.00,LWC V2.10 B1813,2013-02-16 10:42:00,
2013-02-16 03:47:00,28.2,16.9,29.83,NNW,337,0.0,0.0,62,0.00,,,0.00,LWC V2.10 B1813,2013-02-16 10:47:00,
2013-02-16 03:52:00,31.3,17.8,29.82,WSW,247,0.0,3.8,57,0.00,,,0.00,LWC V2.10 B1813,2013-02-16 10:52:00,
2013-02-16 03:57:00,32.9,18.0,29.83,WNW,292,0.0,0.0,54,0.00,,,0.00,LWC V2.10 B1813,2013-02-16 10:57:00,
2013-02-16 04:02:00,34.5,17.3,29.82,NW,315,2.9,2.9,49,0.00,,,0.00,LWC V2.10 B1813,2013-02-16 11:02:00,
2013-02-16 04:07:00,35.2,17.5,29.82,NE,45,0.7,6.0,48,0.00,,,0.00,LWC V2.10 B1813,2013-02-16 11:07:00,
2013-02-16 04:12:00,35.4,17.6,29.82,NNE,22,0.0,0.0,48,0.00,,,0.00,LWC V2.10 B1813,2013-02-16 11:12:00,
2013-02-16 04:17:00,36.3,17.4,29.81,NNE,22,4.0,4.0,46,0.00,,,0.00,LWC V2.10 B1813,2013-02-16 11:17:00,
2013-02-16 04:22:00,36.3,17.4,29.81,North,0,0.0,0.0,46,0.00,,,0.00,LWC V2.10 B1813,2013-02-16 11:22:00,
2013-02-16 04:27:00,35.2,16.4,29.81,NNE,22,0.0,0.0,46,0.00,,,0.00,LWC V2.10 B1813,2013-02-16 11:27:00,
2013-02-16 04:32:00,33.6,14.9,29.82,NNE,22,0.0,0.0,46,0.00,,,0.00,LWC V2.10 B1813,2013-02-16 11:32:00,
2013-02-16 04:37:00,32.7,14.6,29.82,NNE,22,0.0,0.0,47,0.00,,,0.00,LWC V2.10 B1813,2013-02-16 11:37:00,
2013-02-16 04:42:00,31.8,14.3,29.81,NE,45,0.0,0.0,48,0.00,,,0.00,LWC V2.10 B1813,2013-02-16 11:42:00,
2013-02-16 04:47:00,31.3,13.8,29.82,NE,45,0.0,0.0,48,0.00,,,0.00,LWC V2.10 B1813,2013-02-16 11:47:00,
2013-02-16 04:52:00,30.7,13.3,29.82,NE,45,0.0,0.0,48,0.00,,,0.00,LWC V2.10 B1813,2013-02-16 11:52:00,
2013-02-16 04:57:00,30.0,13.2,29.81,NE,45,0.0,0.0,49,0.00,,,0.00,LWC V2.10 B1813,2013-02-16 11:57:00,
2013-02-16 05:02:00,29.1,12.3,29.81,NNW,337,0.0,0.0,49,0.00,,,0.00,LWC V2.10 B1813,2013-02-16 12:02:00,
2013-02-16 05:07:00,28.9,12.7,29.81,NNW,337,0.0,0.0,50,0.00,,,0.00,LWC V2.10 B1813,2013-02-16 12:07:00,
2013-02-16 05:12:00,29.1,13.3,29.81,NNW,337,0.0,0.0,51,0.00,,,0.00,LWC V2.10 B1813,2013-02-16 12:12:00,
2013-02-16 05:17:00,28.6,12.8,29.81,West,270,0.0,0.0,51,0.00,,,0.00,LWC V2.10 B1813,2013-02-16 12:17:00,
2013-02-16 05:22:00,28.2,12.4,29.81,West,270,0.0,0.0,51,0.00,,,0.00,LWC V2.10 B1813,2013-02-16 12:22:00,
2013-02-16 05:27:00,27.7,12.3,29.81,West,270,0.0,0.0,52,0.00,,,0.00,LWC V2.10 B1813,2013-02-16 12:27:00,
2013-02-16 05:32:00,27.1,12.2,29.81,West,270,0.0,0.0,53,0.00,,,0.00,LWC V2.10 B1813,2013-02-16 12:32:00,
2013-02-16 05:37:00,26.8,11.8,29.81,West,270,0.0,0.0,53,0.00,,,0.00,LWC V2.10 B1813,2013-02-16 12:37:00,
2013-02-16 05:42:00,26.2,11.3,29.81,SW,225,0.0,0.0,53,0.00,,,0.00,LWC V2.10 B1813,2013-02-16 12:42:00,
2013-02-16 05:47:00,26.8,11.8,29.81,SW,225,0.0,0.0,53,0.00,,,0.00,LWC V2.10 B1813,2013-02-16 12:47:00,
2013-02-16 05:52:00,26.6,12.1,29.81,SW,225,0.0,0.0,54,0.00,,,0.00,LWC V2.10 B1813,2013-02-16 12:52:00,
2013-02-16 05:57:00,26.2,11.7,29.80,SW,225,0.0,0.0,54,0.00,,,0.00,LWC V2.10 B1813,2013-02-16 12:57:00,
2013-02-16 06:02:00,25.5,11.1,29.81,SW,225,0.0,0.0,54,0.00,,,0.00,LWC V2.10 B1813,2013-02-16 13:02:00,
2013-02-16 06:07:00,25.3,10.9,29.81,SW,225,0.0,0.0,54,0.00,,,0.00,LWC V2.10 B1813,2013-02-16 13:07:00,
2013-02-16 06:12:00,25.0,11.0,29.80,SW,225,0.0,0.0,55,0.00,,,0.00,LWC V2.10 B1813,2013-02-16 13:12:00,
2013-02-16 06:17:00,25.2,11.2,29.80,SSW,202,0.0,0.0,55,0.00,,,0.00,LWC V2.10 B1813,2013-02-16 13:17:00,
2013-02-16 06:22:00,25.2,11.2,29.80,SSW,202,0.0,0.0,55,0.00,,,0.00,LWC V2.10 B1813,2013-02-16 13:22:00,
2013-02-16 06:27:00,25.0,11.0,29.80,SSW,202,0.0,0.0,55,0.00,,,0.00,LWC V2.10 B1813,2013-02-16 13:27:00,
2013-02-16 06:32:00,24.6,11.1,29.80,SSW,202,0.0,0.0,56,0.00,,,0.00,LWC V2.10 B1813,2013-02-16 13:32:00,
2013-02-16 06:37:00,25.0,11.4,29.80,SSW,202,0.0,0.0,56,0.00,,,0.00,LWC V2.10 B1813,2013-02-16 13:37:00,
2013-02-16 06:42:00,25.2,11.6,29.80,SSW,202,0.0,0.0,56,0.00,,,0.00,LWC V2.10 B1813,2013-02-16 13:42:00,
2013-02-16 06:47:00,25.2,11.6,29.80,SSE,157,0.0,0.0,56,0.00,,,0.00,LWC V2.10 B1813,2013-02-16 13:47:00,
2013-02-16 06:52:00,25.2,11.6,29.79,SSE,157,0.0,0.0,56,0.00,,,0.00,LWC V2.10 B1813,2013-02-16 13:52:00,
2013-02-16 06:57:00,25.0,11.4,29.79,SSE,157,0.0,0.0,56,0.00,,,0.00,LWC V2.10 B1813,2013-02-16 13:57:00,
2013-02-16 07:02:00,25.0,11.4,29.79,SW,225,0.0,0.0,56,0.00,,,0.00,LWC V2.10 B1813,2013-02-16 14:02:00,
2013-02-16 07:07:00,25.2,11.6,29.80,WSW,247,0.0,0.0,56,0.00,,,0.00,LWC V2.10 B1813,2013-02-16 14:07:00,
2013-02-16 07:12:00,25.5,11.9,29.80,WSW,247,0.0,0.0,56,0.00,,,0.00,LWC V2.10 B1813,2013-02-16 14:12:00,
2013-02-16 07:17:00,26.8,12.6,29.79,SW,225,0.0,0.0,55,0.00,,,0.00,LWC V2.10 B1813,2013-02-16 14:17:00,
2013-02-16 07:22:00,28.6,13.6,29.80,NNE,22,0.0,0.0,53,0.00,,,0.00,LWC V2.10 B1813,2013-02-16 14:22:00,
2013-02-16 07:27:00,29.7,14.2,29.80,NE,45,0.0,0.0,52,0.00,,,0.00,LWC V2.10 B1813,2013-02-16 14:27:00,
2013-02-16 07:32:00,30.4,14.4,29.80,NE,45,0.0,0.0,51,0.00,,,0.00,LWC V2.10 B1813,2013-02-16 14:32:00,
2013-02-16 07:37:00,32.4,15.3,29.80,North,0,0.0,0.0,49,0.00,,,0.00,LWC V2.10 B1813,2013-02-16 14:37:00,
2013-02-16 07:42:00,34.3,16.1,29.79,NNE,22,0.0,0.0,47,0.00,,,0.00,LWC V2.10 B1813,2013-02-16 14:42:00,
2013-02-16 07:47:00,35.2,16.4,29.80,NNE,22,0.0,0.0,46,0.00,,,0.00,LWC V2.10 B1813,2013-02-16 14:47:00,
2013-02-16 07:52:00,35.8,16.9,29.80,WSW,247,0.0,0.0,46,0.00,,,0.00,LWC V2.10 B1813,2013-02-16 14:52:00,
2013-02-16 07:57:00,36.3,16.9,29.81,WSW,247,0.0,0.0,45,0.00,,,0.00,LWC V2.10 B1813,2013-02-16 14:57:00,
2013-02-16 08:02:00,37.6,17.0,29.81,WSW,247,0.0,0.0,43,0.00,,,0.00,LWC V2.10 B1813,2013-02-16 15:02:00,
2013-02-16 08:07:00,38.5,17.3,29.81,NE,45,0.0,0.0,42,0.00,,,0.00,LWC V2.10 B1813,2013-02-16 15:07:00,
2013-02-16 08:12:00,39.7,18.4,29.80,NE,45,0.0,0.0,41,0.00,,,0.00,LWC V2.10 B1813,2013-02-16 15:12:00,
2013-02-16 08:17:00,41.7,19.7,29.81,NE,45,0.0,0.0,41,0.00,,,0.00,LWC V2.10 B1813,2013-02-16 15:17:00,
2013-02-16 08:22:00,42.6,20.0,29.81,NE,45,0.0,0.0,40,0.00,,,0.00,LWC V2.10 B1813,2013-02-16 15:22:00,
2013-02-16 08:27:00,43.5,20.8,29.81,NE,45,0.0,0.0,39,0.00,,,0.00,LWC V2.10 B1813,2013-02-16 15:27:00,
2013-02-16 08:32:00,44.4,20.2,29.81,NE,45,0.0,0.0,38,0.00,,,0.00,LWC V2.10 B1813,2013-02-16 15:32:00,
2013-02-16 08:37:00,43.5,19.4,29.81,SE,135,0.0,0.0,38,0.00,,,0.00,LWC V2.10 B1813,2013-02-16 15:37:00,
2013-02-16 08:42:00,41.7,18.5,29.81,NE,45,0.0,0.0,38,0.00,,,0.00,LWC V2.10 B1813,2013-02-16 15:42:00,
2013-02-16 08:47:00,41.4,18.2,29.81,NE,45,0.0,0.0,39,0.00,,,0.00,LWC V2.10 B1813,2013-02-16 15:47:00,
2013-02-16 08:52:00,41.5,19.0,29.81,SE,135,0.0,0.0,40,0.00,,,0.00,LWC V2.10 B1813,2013-02-16 15:52:00,
2013-02-16 08:58:00,42.4,19.1,29.81,SSE,157,0.0,0.0,39,0.00,,,0.00,LWC V2.10 B1813,2013-02-16 15:58:00,
2013-02-16 09:03:00,42.1,18.8,29.81,ESE,112,0.0,0.0,39,0.00,,,0.00,LWC V2.10 B1813,2013-02-16 16:03:00,
2013-02-16 09:08:00,42.1,18.8,29.81,SE,135,0.0,0.0,39,0.00,,,0.00,LWC V2.10 B1813,2013-02-16 16:08:00,
2013-02-16 09:13:00,42.6,18.6,29.81,NE,45,0.0,4.9,38,0.00,,,0.00,LWC V2.10 B1813,2013-02-16 16:13:00,
2013-02-16 09:18:00,42.1,19.5,29.82,NNE,22,0.0,0.0,40,0.00,,,0.00,LWC V2.10 B1813,2013-02-16 16:18:00,
2013-02-16 09:23:00,41.4,19.3,29.81,NW,315,0.0,0.0,41,0.00,,,0.00,LWC V2.10 B1813,2013-02-16 16:23:00,
2013-02-16 09:28:00,39.9,18.6,29.82,SSE,157,5.4,9.6,43,0.00,,,0.00,LWC V2.10 B1813,2013-02-16 16:28:00,
2013-02-16 09:33:00,40.5,19.1,29.82,SSE,157,3.1,3.1,42,0.00,,,0.00,LWC V2.10 B1813,2013-02-16 16:33:00,
2013-02-16 09:38:00,41.2,19.7,29.82,SE,135,4.9,4.9,42,0.00,,,0.00,LWC V2.10 B1813,2013-02-16 16:38:00,
2013-02-16 09:43:00,41.9,19.8,29.82,NE,45,0.0,5.6,41,0.00,,,0.00,LWC V2.10 B1813,2013-02-16 16:43:00,
2013-02-16 09:48:00,41.5,20.0,29.82,SSE,157,7.6,7.6,42,0.00,,,0.00,LWC V2.10 B1813,2013-02-16 16:48:00,
2013-02-16 09:53:00,42.1,20.0,29.83,NE,45,0.0,0.0,41,0.00,,,0.00,LWC V2.10 B1813,2013-02-16 16:53:00,
2013-02-16 09:58:00,43.2,21.0,29.83,SSE,157,0.0,0.0,41,0.00,,,0.00,LWC V2.10 B1813,2013-02-16 16:58:00,
2013-02-16 10:03:00,44.4,21.6,29.83,ENE,67,0.0,0.0,40,0.00,,,0.00,LWC V2.10 B1813,2013-02-16 17:03:00,
2013-02-16 10:08:00,45.0,21.4,29.83,NE,45,2.9,2.9,39,0.00,,,0.00,LWC V2.10 B1813,2013-02-16 17:08:00,
2013-02-16 10:13:00,45.1,21.6,29.83,SE,135,6.9,6.9,39,0.00,,,0.00,LWC V2.10 B1813,2013-02-16 17:13:00,
2013-02-16 10:18:00,45.5,21.2,29.83,SE,135,0.0,0.0,38,0.00,,,0.00,LWC V2.10 B1813,2013-02-16 17:18:00,
2013-02-16 10:23:00,45.3,20.4,29.83,NE,45,3.8,3.8,37,0.00,,,0.00,LWC V2.10 B1813,2013-02-16 17:23:00,
2013-02-16 10:28:00,45.7,21.4,29.83,SSE,157,1.6,1.6,38,0.00,,,0.00,LWC V2.10 B1813,2013-02-16 17:28:00,
2013-02-16 10:33:00,46.2,21.9,29.82,SE,135,0.0,0.0,38,0.00,,,0.00,LWC V2.10 B1813,2013-02-16 17:33:00,
2013-02-16 10:38:00,47.1,22.0,29.82,SSE,157,3.8,3.8,37,0.00,,,0.00,LWC V2.10 B1813,2013-02-16 17:38:00,
2013-02-16 10:43:00,48.2,22.3,29.82,SE,135,0.0,0.0,36,0.00,,,0.00,LWC V2.10 B1813,2013-02-16 17:43:00,
2013-02-16 10:48:00,49.1,23.1,29.82,SE,135,0.0,0.0,36,0.00,,,0.00,LWC V2.10 B1813,2013-02-16 17:48:00,
2013-02-16 10:53:00,49.6,22.9,29.82,SSE,157,0.0,0.0,35,0.00,,,0.00,LWC V2.10 B1813,2013-02-16 17:53:00,
2013-02-16 10:58:00,49.8,22.3,29.83,SSE,157,3.4,3.4,34,0.00,,,0.00,LWC V2.10 B1813,2013-02-16 17:58:00,
2013-02-16 11:03:00,50.2,22.7,29.83,SSE,157,0.0,0.0,34,0.00,,,0.00,LWC V2.10 B1813,2013-02-16 18:03:00,
2013-02-16 11:08:00,50.7,22.8,29.82,SE,135,0.0,0.0,33,0.00,,,0.00,LWC V2.10 B1813,2013-02-16 18:08:00,
2013-02-16 11:13:00,51.6,23.3,29.82,SSE,157,0.0,0.0,33,0.00,,,0.00,LWC V2.10 B1813,2013-02-16 18:13:00,
2013-02-16 11:18:00,52.3,23.2,29.82,SSE,157,0.9,0.9,32,0.00,,,0.00,LWC V2.10 B1813,2013-02-16 18:18:00,
2013-02-16 11:23:00,53.2,23.4,29.82,SSE,157,0.0,0.0,31,0.00,,,0.00,LWC V2.10 B1813,2013-02-16 18:23:00,
2013-02-16 11:28:00,54.0,23.3,29.82,SE,135,0.0,0.0,30,0.00,,,0.00,LWC V2.10 B1813,2013-02-16 18:28:00,
2013-02-16 11:33:00,53.2,22.7,29.82,NE,45,0.0,0.0,30,0.00,,,0.00,LWC V2.10 B1813,2013-02-16 18:33:00,
2013-02-16 11:38:00,53.4,22.8,29.81,NNE,22,2.0,2.0,30,0.00,,,0.00,LWC V2.10 B1813,2013-02-16 18:38:00,
2013-02-16 11:43:00,52.7,21.2,29.81,NE,45,0.0,0.0,29,0.00,,,0.00,LWC V2.10 B1813,2013-02-16 18:43:00,
2013-02-16 11:48:00,52.9,22.4,29.80,ENE,67,0.0,0.0,30,0.00,,,0.00,LWC V2.10 B1813,2013-02-16 18:48:00,
2013-02-16 11:53:00,54.1,23.3,29.79,NNE,22,0.0,3.6,30,0.00,,,0.00,LWC V2.10 B1813,2013-02-16 18:53:00,
2013-02-16 11:58:00,54.0,23.3,29.79,SE,135,0.0,0.0,30,0.00,,,0.00,LWC V2.10 B1813,2013-02-16 18:58:00,
2013-02-16 12:03:00,54.3,23.6,29.79,SE,135,4.7,4.7,30,0.00,,,0.00,LWC V2.10 B1813,2013-02-16 19:03:00,
2013-02-16 12:08:00,54.3,23.6,29.79,SE,135,8.7,8.7,30,0.00,,,0.00,LWC V2.10 B1813,2013-02-16 19:08:00,
2013-02-16 12:13:00,53.4,22.8,29.79,SE,135,0.0,1.3,30,0.00,,,0.00,LWC V2.10 B1813,2013-02-16 19:13:00,
2013-02-16 12:18:00,54.0,23.3,29.79,SSE,157,1.8,1.8,30,0.00,,,0.00,LWC V2.10 B1813,2013-02-16 19:18:00,
2013-02-16 12:23:00,54.3,23.6,29.78,ESE,112,7.2,7.2,30,0.00,,,0.00,LWC V2.10 B1813,2013-02-16 19:23:00,
2013-02-16 12:28:00,54.7,22.9,29.78,SSE,157,4.0,6.5,29,0.00,,,0.00,LWC V2.10 B1813,2013-02-16 19:28:00,
2013-02-16 12:33:00,55.2,23.3,29.78,SSE,157,3.8,3.8,29,0.00,,,0.00,LWC V2.10 B1813,2013-02-16 19:33:00,
2013-02-16 12:38:00,56.1,24.1,29.77,South,180,4.9,4.9,29,0.00,,,0.00,LWC V2.10 B1813,2013-02-16 19:38:00,
2013-02-16 12:43:00,56.5,22.6,29.77,East,90,0.0,1.1,27,0.00,,,0.00,LWC V2.10 B1813,2013-02-16 19:43:00,
2013-02-16 12:48:00,57.7,23.7,29.77,ESE,112,4.9,4.9,27,0.00,,,0.00,LWC V2.10 B1813,2013-02-16 19:48:00,
2013-02-16 12:53:00,58.8,22.7,29.76,WNW,292,6.3,6.3,25,0.00,,,0.00,LWC V2.10 B1813,2013-02-16 19:53:00,
2013-02-16 12:58:00,58.8,22.7,29.76,WSW,247,8.1,8.1,25,0.00,,,0.00,LWC V2.10 B1813,2013-02-16 19:58:00,
2013-02-16 13:03:00,59.4,23.1,29.76,SSW,202,0.0,0.0,25,0.00,,,0.00,LWC V2.10 B1813,2013-02-16 20:03:00,
2013-02-16 13:08:00,60.1,23.7,29.76,WSW,247,7.6,7.6,25,0.00,,,0.00,LWC V2.10 B1813,2013-02-16 20:08:00,
2013-02-16 13:13:00,60.1,22.8,29.76,SW,225,8.5,8.5,24,0.00,,,0.00,LWC V2.10 B1813,2013-02-16 20:13:00,
2013-02-16 13:18:00,60.1,22.8,29.76,SW,225,4.0,4.0,24,0.00,,,0.00,LWC V2.10 B1813,2013-02-16 20:18:00,
2013-02-16 13:23:00,60.4,23.1,29.76,SW,225,2.9,4.2,24,0.00,,,0.00,LWC V2.10 B1813,2013-02-16 20:23:00,
2013-02-16 13:28:00,60.6,23.2,29.76,WSW,247,6.3,6.3,24,0.00,,,0.00,LWC V2.10 B1813,2013-02-16 20:28:00,
2013-02-16 13:33:00,60.8,23.4,29.75,NE,45,0.0,0.0,24,0.00,,,0.00,LWC V2.10 B1813,2013-02-16 20:33:00,
2013-02-16 13:38:00,61.2,23.7,29.76,West,270,0.0,5.1,24,0.00,,,0.00,LWC V2.10 B1813,2013-02-16 20:38:00,
2013-02-16 13:43:00,61.9,24.3,29.76,WSW,247,5.8,5.8,24,0.00,,,0.00,LWC V2.10 B1813,2013-02-16 20:43:00,
2013-02-16 13:48:00,62.2,23.6,29.76,SW,225,5.1,5.1,23,0.00,,,0.00,LWC V2.10 B1813,2013-02-16 20:48:00,
2013-02-16 13:53:00,61.5,23.0,29.76,West,270,5.1,5.1,23,0.00,,,0.00,LWC V2.10 B1813,2013-02-16 20:53:00,
2013-02-16 13:58:00,61.5,23.0,29.76,West,270,5.8,5.8,23,0.00,,,0.00,LWC V2.10 B1813,2013-02-16 20:58:00,
2013-02-16 14:03:00,61.0,22.6,29.75,WNW,292,0.0,0.0,23,0.00,,,0.00,LWC V2.10 B1813,2013-02-16 21:03:00,
2013-02-16 14:08:00,60.6,22.3,29.75,SSW,202,14.5,14.5,23,0.00,,,0.00,LWC V2.10 B1813,2013-02-16 21:08:00,
2013-02-16 14:13:00,60.1,20.8,29.75,WSW,247,9.6,9.6,22,0.00,,,0.00,LWC V2.10 B1813,2013-02-16 21:13:00,
2013-02-16 14:18:00,60.4,22.1,29.75,NW,315,0.0,0.0,23,0.00,,,0.00,LWC V2.10 B1813,2013-02-16 21:18:00,
2013-02-16 14:23:00,60.1,20.8,29.75,WSW,247,0.0,5.1,22,0.00,,,0.00,LWC V2.10 B1813,2013-02-16 21:23:00,
2013-02-16 14:28:00,60.3,22.0,29.75,WSW,247,6.5,6.5,23,0.00,,,0.00,LWC V2.10 B1813,2013-02-16 21:28:00,
2013-02-16 14:33:00,60.4,20.2,29.75,North,0,6.9,6.9,21,0.00,,,0.00,LWC V2.10 B1813,2013-02-16 21:33:00,
2013-02-16 14:38:00,59.5,20.4,29.74,West,270,6.9,6.9,22,0.00,,,0.00,LWC V2.10 B1813,2013-02-16 21:38:00,
2013-02-16 14:43:00,59.7,19.6,29.74,North,0,1.1,1.1,21,0.00,,,0.00,LWC V2.10 B1813,2013-02-16 21:43:00,
2013-02-16 14:48:00,59.9,19.7,29.74,North,0,9.6,9.6,21,0.00,,,0.00,LWC V2.10 B1813,2013-02-16 21:48:00,
2013-02-16 14:53:00,59.7,19.6,29.74,WSW,247,2.0,2.9,21,0.00,,,0.00,LWC V2.10 B1813,2013-02-16 21:53:00,
2013-02-16 14:58:00,59.7,19.6,29.74,WSW,247,4.0,4.0,21,0.00,,,0.00,LWC V2.10 B1813,2013-02-16 21:58:00,
2013-02-16 15:03:00,59.4,19.2,29.74,WSW,247,6.9,6.9,21,0.00,,,0.00,LWC V2.10 B1813,2013-02-16 22:03:00,
2013-02-16 15:08:00,59.2,19.1,29.74,WSW,247,6.5,7.4,21,0.00,,,0.00,LWC V2.10 B1813,2013-02-16 22:08:00,
2013-02-16 15:13:00,59.2,19.1,29.74,WSW,247,8.5,8.5,21,0.00,,,0.00,LWC V2.10 B1813,2013-02-16 22:13:00,
2013-02-16 15:18:00,59.0,18.8,29.74,WSW,247,0.0,5.6,21,0.00,,,0.00,LWC V2.10 B1813,2013-02-16 22:18:00,
2013-02-16 15:23:00,59.5,19.4,29.74,WSW,247,2.9,5.4,21,0.00,,,0.00,LWC V2.10 B1813,2013-02-16 22:23:00,
2013-02-16 15:28:00,60.1,19.9,29.74,WSW,247,0.0,0.0,21,0.00,,,0.00,LWC V2.10 B1813,2013-02-16 22:28:00,
2013-02-16 15:33:00,60.1,18.9,29.74,WSW,247,10.7,10.7,20,0.00,,,0.00,LWC V2.10 B1813,2013-02-16 22:33:00,
2013-02-16 15:38:00,59.7,19.6,29.74,WSW,247,5.1,8.3,21,0.00,,,0.00,LWC V2.10 B1813,2013-02-16 22:38:00,
2013-02-16 15:43:00,59.7,19.6,29.74,WSW,247,0.0,0.0,21,0.00,,,0.00,LWC V2.10 B1813,2013-02-16 22:43:00,
2013-02-16 15:48:00,60.3,20.8,29.73,WSW,247,7.2,7.2,22,0.00,,,0.00,LWC V2.10 B1813,2013-02-16 22:48:00,
2013-02-16 15:53:00,59.7,20.5,29.74,WSW,247,0.0,0.0,22,0.00,,,0.00,LWC V2.10 B1813,2013-02-16 22:53:00,
2013-02-16 15:58:00,59.9,20.7,29.74,WSW,247,0.0,0.0,22,0.00,,,0.00,LWC V2.10 B1813,2013-02-16 22:58:00,
2013-02-16 16:03:00,59.7,20.5,29.73,WSW,247,2.5,7.6,22,0.00,,,0.00,LWC V2.10 B1813,2013-02-16 23:03:00,
2013-02-16 16:08:00,58.8,19.7,29.74,WSW,247,1.6,2.7,22,0.00,,,0.00,LWC V2.10 B1813,2013-02-16 23:08:00,
2013-02-16 16:13:00,58.8,19.7,29.73,WSW,247,2.5,2.5,22,0.00,,,0.00,LWC V2.10 B1813,2013-02-16 23:13:00,
2013-02-16 16:18:00,58.8,19.3,29.74,WSW,247,2.5,4.5,22,0.00,,,0.00,LWC V2.10 B1813,2013-02-16 23:18:00,
2013-02-16 16:23:00,57.9,20.0,29.74,WSW,247,4.0,5.4,23,0.00,,,0.00,LWC V2.10 B1813,2013-02-16 23:23:00,
2013-02-16 16:28:00,57.7,18.9,29.73,WSW,247,1.6,1.6,22,0.00,,,0.00,LWC V2.10 B1813,2013-02-16 23:28:00,
2013-02-16 16:33:00,57.6,19.7,29.74,WSW,247,7.2,7.2,23,0.00,,,0.00,LWC V2.10 B1813,2013-02-16 23:33:00,
2013-02-16 16:38:00,56.8,20.0,29.74,WSW,247,6.5,6.5,24,0.00,,,0.00,LWC V2.10 B1813,2013-02-16 23:38:00,
2013-02-16 16:43:00,56.1,18.5,29.73,WSW,247,6.0,6.0,23,0.00,,,0.00,LWC V2.10 B1813,2013-02-16 23:43:00,
2013-02-16 16:49:00,55.6,18.0,29.73,WSW,247,6.5,6.5,23,0.00,,,0.00,LWC V2.10 B1813,2013-02-16 23:49:00,
2013-02-16 16:54:00,55.2,17.7,29.73,WSW,247,3.8,3.8,23,0.00,,,0.00,LWC V2.10 B1813,2013-02-16 23:54:00,
2013-02-16 16:59:00,54.7,17.3,29.73,WSW,247,0.0,0.0,23,0.00,,,0.00,LWC V2.10 B1813,2013-02-16 23:59:00,
2013-02-16 17:04:00,53.2,17.0,29.73,WSW,247,2.7,2.7,24,0.00,,,0.00,LWC V2.10 B1813,2013-02-17 00:04:00,
2013-02-16 17:09:00,52.9,16.7,29.73,WSW,247,0.0,4.7,24,0.00,,,0.00,LWC V2.10 B1813,2013-02-17 00:09:00,
2013-02-16 17:14:00,52.0,15.9,29.73,SW,225,0.0,0.0,24,0.00,,,0.00,LWC V2.10 B1813,2013-02-17 00:14:00,
2013-02-16 17:19:00,51.3,15.3,29.73,SW,225,0.0,0.0,24,0.00,,,0.00,LWC V2.10 B1813,2013-02-17 00:19:00,
2013-02-16 17:24:00,50.7,14.8,29.73,SSW,202,0.0,0.0,24,0.00,,,0.00,LWC V2.10 B1813,2013-02-17 00:24:00,
2013-02-16 17:29:00,50.5,14.7,29.73,SW,225,7.4,7.4,24,0.00,,,0.00,LWC V2.10 B1813,2013-02-17 00:29:00,
2013-02-16 17:34:00,50.2,14.4,29.73,SSW,202,0.0,5.1,24,0.00,,,0.00,LWC V2.10 B1813,2013-02-17 00:34:00,
2013-02-16 17:39:00,49.3,13.6,29.73,SSW,202,0.0,0.0,24,0.00,,,0.00,LWC V2.10 B1813,2013-02-17 00:39:00,
2013-02-16 17:44:00,49.3,13.6,29.73,SSE,157,0.0,0.0,24,0.00,,,0.00,LWC V2.10 B1813,2013-02-17 00:44:00,
2013-02-16 17:49:00,48.9,13.3,29.73,SSW,202,1.8,1.8,24,0.00,,,0.00,LWC V2.10 B1813,2013-02-17 00:49:00,
2013-02-16 17:54:00,48.7,13.2,29.73,WSW,247,0.0,0.0,24,0.00,,,0.00,LWC V2.10 B1813,2013-02-17 00:54:00,
2013-02-16 17:59:00,48.4,12.8,29.73,WSW,247,4.2,4.2,24,0.00,,,0.00,LWC V2.10 B1813,2013-02-17 00:59:00,
2013-02-16 18:04:00,48.0,13.5,29.73,West,270,0.0,0.0,25,0.00,,,0.00,LWC V2.10 B1813,2013-02-17 01:04:00,
2013-02-16 18:09:00,47.7,13.2,29.72,West,270,0.0,0.0,25,0.00,,,0.00,LWC V2.10 B1813,2013-02-17 01:09:00,
2013-02-16 18:14:00,47.1,12.4,29.72,NW,315,0.0,0.0,25,0.00,,,0.00,LWC V2.10 B1813,2013-02-17 01:14:00,
2013-02-16 18:19:00,46.2,12.9,29.73,NW,315,0.0,0.0,26,0.00,,,0.00,LWC V2.10 B1813,2013-02-17 01:19:00,
2013-02-16 18:24:00,45.5,12.3,29.72,NW,315,0.0,0.0,26,0.00,,,0.00,LWC V2.10 B1813,2013-02-17 01:24:00,
2013-02-16 18:29:00,45.1,11.9,29.73,NNW,337,0.0,0.0,26,0.00,,,0.00,LWC V2.10 B1813,2013-02-17 01:29:00,
2013-02-16 18:34:00,44.2,12.1,29.73,West,270,0.0,0.0,27,0.00,,,0.00,LWC V2.10 B1813,2013-02-17 01:34:00,
2013-02-16 18:39:00,43.5,11.4,29.71,SW,225,0.0,0.0,27,0.00,,,0.00,LWC V2.10 B1813,2013-02-17 01:39:00,
2013-02-16 18:44:00,42.6,10.6,29.73,NNW,337,0.0,2.0,27,0.00,,,0.00,LWC V2.10 B1813,2013-02-17 01:44:00,
2013-02-16 18:49:00,42.4,11.4,29.72,NNW,337,0.0,0.0,28,0.00,,,0.00,LWC V2.10 B1813,2013-02-17 01:49:00,
2013-02-16 18:54:00,41.9,10.9,29.73,NW,315,0.0,0.0,28,0.00,,,0.00,LWC V2.10 B1813,2013-02-17 01:54:00,
2013-02-16 18:59:00,41.7,10.8,29.73,NNW,337,0.0,0.0,28,0.00,,,0.00,LWC V2.10 B1813,2013-02-17 01:59:00,
2013-02-16 19:04:00,41.2,10.4,29.72,WSW,247,0.0,0.0,28,0.00,,,0.00,LWC V2.10 B1813,2013-02-17 02:04:00,
2013-02-16 19:09:00,40.5,10.6,29.73,WSW,247,0.0,0.0,29,0.00,,,0.00,LWC V2.10 B1813,2013-02-17 02:09:00,
2013-02-16 19:14:00,39.9,10.0,29.72,WSW,247,0.0,0.0,29,0.00,,,0.00,LWC V2.10 B1813,2013-02-17 02:14:00,
2013-02-16 19:19:00,38.8,10.1,29.72,WSW,247,0.0,0.0,30,0.00,,,0.00,LWC V2.10 B1813,2013-02-17 02:19:00,
2013-02-16 19:24:00,38.1,9.4,29.72,WSW,247,0.0,0.0,30,0.00,,,0.00,LWC V2.10 B1813,2013-02-17 02:24:00,
2013-02-16 19:29:00,37.9,9.3,29.72,NNW,337,0.0,0.0,30,0.00,,,0.00,LWC V2.10 B1813,2013-02-17 02:29:00,
2013-02-16 19:34:00,37.6,8.9,29.72,WNW,292,0.0,0.0,30,0.00,,,0.00,LWC V2.10 B1813,2013-02-17 02:34:00,
2013-02-16 19:39:00,37.0,9.1,29.72,WNW,292,0.0,0.0,31,0.00,,,0.00,LWC V2.10 B1813,2013-02-17 02:39:00,
2013-02-16 19:44:00,35.4,7.6,29.72,WSW,247,0.0,0.0,31,0.00,,,0.00,LWC V2.10 B1813,2013-02-17 02:44:00,
2013-02-16 19:49:00,35.2,8.1,29.72,WSW,247,0.0,0.0,32,0.00,,,0.00,LWC V2.10 B1813,2013-02-17 02:49:00,
2013-02-16 19:54:00,35.2,8.1,29.71,WSW,247,0.0,0.0,32,0.00,,,0.00,LWC V2.10 B1813,2013-02-17 02:54:00,
2013-02-16 19:59:00,34.9,7.6,29.71,WSW,247,0.0,0.0,32,0.00,,,0.00,LWC V2.10 B1813,2013-02-17 02:59:00,
2013-02-16 20:04:00,34.2,7.9,29.71,WSW,247,0.0,0.0,33,0.00,,,0.00,LWC V2.10 B1813,2013-02-17 03:04:00,
2013-02-16 20:09:00,33.6,7.4,29.71,WSW,247,0.0,0.0,33,0.00,,,0.00,LWC V2.10 B1813,2013-02-17 03:09:00,
2013-02-16 20:14:00,32.7,7.3,29.72,WSW,247,0.0,0.0,34,0.00,,,0.00,LWC V2.10 B1813,2013-02-17 03:14:00,
2013-02-16 20:19:00,32.5,7.1,29.72,WSW,247,0.0,0.0,34,0.00,,,0.00,LWC V2.10 B1813,2013-02-17 03:19:00,
2013-02-16 20:24:00,32.2,7.4,29.71,WSW,247,0.0,0.0,35,0.00,,,0.00,LWC V2.10 B1813,2013-02-17 03:24:00,
2013-02-16 20:29:00,31.8,7.1,29.71,WSW,247,0.0,0.0,35,0.00,,,0.00,LWC V2.10 B1813,2013-02-17 03:29:00,
2013-02-16 20:34:00,31.8,7.1,29.71,WSW,247,0.0,0.0,35,0.00,,,0.00,LWC V2.10 B1813,2013-02-17 03:34:00,
2013-02-16 20:39:00,31.6,7.6,29.71,WSW,247,0.0,0.0,36,0.00,,,0.00,LWC V2.10 B1813,2013-02-17 03:39:00,
2013-02-16 20:44:00,31.1,7.1,29.71,WSW,247,0.0,0.0,36,0.00,,,0.00,LWC V2.10 B1813,2013-02-17 03:44:00,
2013-02-16 20:49:00,30.7,6.7,29.71,WSW,247,0.0,0.0,36,0.00,,,0.00,LWC V2.10 B1813,2013-02-17 03:49:00,
2013-02-16 20:54:00,30.4,7.1,29.71,WSW,247,0.0,0.0,37,0.00,,,0.00,LWC V2.10 B1813,2013-02-17 03:54:00,
2013-02-16 20:59:00,30.9,7.5,29.71,WSW,247,0.0,0.0,37,0.00,,,0.00,LWC V2.10 B1813,2013-02-17 03:59:00,
2013-02-16 21:04:00,31.8,8.3,29.71,WSW,247,0.0,0.0,37,0.00,,,0.00,LWC V2.10 B1813,2013-02-17 04:04:00,
2013-02-16 21:09:00,31.8,8.3,29.71,WSW,247,0.0,0.0,37,0.00,,,0.00,LWC V2.10 B1813,2013-02-17 04:09:00,
2013-02-16 21:14:00,31.6,8.2,29.70,West,270,0.0,0.0,37,0.00,,,0.00,LWC V2.10 B1813,2013-02-17 04:14:00,
2013-02-16 21:19:00,31.8,8.3,29.71,West,270,0.0,0.0,37,0.00,,,0.00,LWC V2.10 B1813,2013-02-17 04:19:00,
2013-02-16 21:24:00,31.6,8.2,29.71,SW,225,0.0,0.0,37,0.00,,,0.00,LWC V2.10 B1813,2013-02-17 04:24:00,
2013-02-16 21:29:00,31.3,7.9,29.71,SW,225,0.0,0.0,37,0.00,,,0.00,LWC V2.10 B1813,2013-02-17 04:29:00,
2013-02-16 21:34:00,31.3,7.9,29.71,SW,225,0.0,0.0,37,0.00,,,0.00,LWC V2.10 B1813,2013-02-17 04:34:00,
2013-02-16 21:39:00,31.5,8.0,29.71,SW,225,0.0,0.0,37,0.00,,,0.00,LWC V2.10 B1813,2013-02-17 04:39:00,
2013-02-16 21:44:00,32.9,9.9,29.71,NNW,337,0.0,0.0,38,0.00,,,0.00,LWC V2.10 B1813,2013-02-17 04:44:00,
2013-02-16 21:49:00,34.9,11.7,29.71,West,270,0.0,0.0,38,0.00,,,0.00,LWC V2.10 B1813,2013-02-17 04:49:00,
2013-02-16 21:54:00,37.2,12.5,29.71,WNW,292,1.8,1.8,36,0.00,,,0.00,LWC V2.10 B1813,2013-02-17 04:54:00,
2013-02-16 21:59:00,41.0,14.6,29.70,WNW,292,0.0,1.6,34,0.00,,,0.00,LWC V2.10 B1813,2013-02-17 04:59:00,
2013-02-16 22:00:00,41.0,14.6,29.70,WNW,292,0.0,0.0,34,0.00,,,0.00,LWC V2.10 B1813,2013-02-17 05:00:00,
2013-02-16 22:05:00,43.0,14.5,29.70,West,270,0.0,0.0,32,0.00,,,0.00,LWC V2.10 B1813,2013-02-17 05:05:00,
2013-02-16 22:10:00,43.2,14.4,29.70,West,270,0.0,0.0,31,0.00,,,0.00,LWC V2.10 B1813,2013-02-17 05:10:00,
2013-02-16 22:12:00,43.3,13.9,29.70,NE,45,2.2,2.2,30,0.00,,,0.00,LWC V2.10 B1813,2013-02-17 05:12:00,
2013-02-16 22:17:00,43.3,14.6,29.70,NE,45,0.0,0.0,31,0.00,,,0.00,LWC V2.10 B1813,2013-02-17 05:17:00,
2013-02-16 22:22:00,43.0,14.3,29.70,NW,315,0.0,0.0,31,0.00,,,0.00,LWC V2.10 B1813,2013-02-17 05:22:00,
2013-02-16 22:27:00,43.5,14.1,29.70,WNW,292,0.0,0.0,30,0.00,,,0.00,LWC V2.10 B1813,2013-02-17 05:27:00,
2013-02-16 22:32:00,43.7,14.3,29.70,West,270,0.0,0.0,30,0.00,,,0.00,LWC V2.10 B1813,2013-02-17 05:32:00,
2013-02-16 22:37:00,43.5,14.1,29.69,WNW,292,0.0,0.0,30,0.00,,,0.00,LWC V2.10 B1813,2013-02-17 05:37:00,
2013-02-16 22:42:00,42.4,13.2,29.70,WNW,292,0.0,0.0,30,0.00,,,0.00,LWC V2.10 B1813,2013-02-17 05:42:00,
2013-02-16 22:47:00,41.4,13.0,29.69,WNW,292,0.0,0.0,31,0.00,,,0.00,LWC V2.10 B1813,2013-02-17 05:47:00,
2013-02-16 22:52:00,40.6,12.3,29.68,WNW,292,0.0,0.0,31,0.00,,,0.00,LWC V2.10 B1813,2013-02-17 05:52:00,
2013-02-16 22:53:00,40.3,12.0,29.68,WNW,292,0.0,0.0,31,0.00,,,0.00,LWC V2.10 B1813,2013-02-17 05:53:00,
2013-02-16 22:58:00,39.9,11.7,29.68,WNW,292,0.0,0.0,31,0.00,,,0.00,LWC V2.10 B1813,2013-02-17 05:58:00,
2013-02-16 23:03:00,39.4,11.9,29.68,WSW,247,0.0,0.0,32,0.00,,,0.00,LWC V2.10 B1813,2013-02-17 06:03:00,
2013-02-16 23:08:00,39.0,11.5,29.68,WNW,292,0.0,1.3,32,0.00,,,0.00,LWC V2.10 B1813,2013-02-17 06:08:00,
2013-02-16 23:13:00,38.3,11.5,29.68,WNW,292,0.0,0.0,33,0.00,,,0.00,LWC V2.10 B1813,2013-02-17 06:13:00,
2013-02-16 23:18:00,37.9,11.2,29.68,North,0,0.0,0.0,33,0.00,,,0.00,LWC V2.10 B1813,2013-02-17 06:18:00,
2013-02-16 23:23:00,37.6,10.9,29.68,ESE,112,0.0,0.0,33,0.00,,,0.00,LWC V2.10 B1813,2013-02-17 06:23:00,
2013-02-16 23:28:00,37.0,10.4,29.67,ESE,112,0.0,0.0,33,0.00,,,0.00,LWC V2.10 B1813,2013-02-17 06:28:00,
2013-02-16 23:33:00,36.3,10.4,29.68,ESE,112,0.0,0.0,34,0.00,,,0.00,LWC V2.10 B1813,2013-02-17 06:33:00,
2013-02-16 23:38:00,35.4,9.6,29.68,NE,45,0.0,0.0,34,0.00,,,0.00,LWC V2.10 B1813,2013-02-17 06:38:00,
2013-02-16 23:43:00,35.8,10.6,29.67,NNE,22,0.0,0.0,35,0.00,,,0.00,LWC V2.10 B1813,2013-02-17 06:43:00,
2013-02-16 23:48:00,35.8,10.6,29.67,NNE,22,0.0,0.0,35,0.00,,,0.00,LWC V2.10 B1813,2013-02-17 06:48:00,
2013-02-16 23:53:00,37.2,11.2,29.67,West,270,0.0,3.8,34,0.00,,,0.00,LWC V2.10 B1813,2013-02-17 06:53:00,
2013-02-16 23:58:00,38.5,11.7,29.66,NW,315,0.0,0.0,33,0.00,,,0.00,LWC V2.10 B1813,2013-02-17 06:58:00,